sensor_id;sensor_type;location;lat;lon;timestamp;P1;durP1;ratioP1;P2;durP2;ratioP2
27539;SDS011;15906;52.046;4.724;2023-07-13T00:02:22;11.15;;;4.25;;
27539;SDS011;15906;52.046;4.724;2023-07-13T00:04:48;17.75;;;3.90;;
27539;SDS011;15906;52.046;4.724;2023-07-13T00:07:14;20.30;;;4.60;;
27539;SDS011;15906;52.046;4.724;2023-07-13T00:09:40;23.55;;;3.63;;
27539;SDS011;15906;52.046;4.724;2023-07-13T00:12:20;15.90;;;3.83;;
27539;SDS011;15906;52.046;4.724;2023-07-13T00:14:49;17.02;;;4.20;;
27539;SDS011;15906;52.046;4.724;2023-07-13T00:17:15;13.57;;;3.67;;
27539;SDS011;15906;52.046;4.724;2023-07-13T00:19:40;18.98;;;4.80;;
27539;SDS011;15906;52.046;4.724;2023-07-13T00:22:06;14.48;;;3.55;;
27539;SDS011;15906;52.046;4.724;2023-07-13T00:24:32;14.05;;;4.13;;
27539;SDS011;15906;52.046;4.724;2023-07-13T00:26:57;18.23;;;4.68;;
27539;SDS011;15906;52.046;4.724;2023-07-13T00:29:23;19.73;;;5.93;;
27539;SDS011;15906;52.046;4.724;2023-07-13T00:31:50;11.93;;;4.03;;
27539;SDS011;15906;52.046;4.724;2023-07-13T00:34:16;16.10;;;3.58;;
27539;SDS011;15906;52.046;4.724;2023-07-13T00:36:41;14.20;;;3.63;;
27539;SDS011;15906;52.046;4.724;2023-07-13T00:39:07;18.42;;;3.80;;
27539;SDS011;15906;52.046;4.724;2023-07-13T00:41:33;17.25;;;3.92;;
27539;SDS011;15906;52.046;4.724;2023-07-13T00:43:59;17.02;;;3.60;;
27539;SDS011;15906;52.046;4.724;2023-07-13T00:46:27;14.55;;;3.75;;
27539;SDS011;15906;52.046;4.724;2023-07-13T00:48:54;8.95;;;3.25;;
27539;SDS011;15906;52.046;4.724;2023-07-13T00:51:26;13.88;;;3.38;;
27539;SDS011;15906;52.046;4.724;2023-07-13T00:54:00;15.30;;;3.53;;
27539;SDS011;15906;52.046;4.724;2023-07-13T00:56:31;11.88;;;3.20;;
27539;SDS011;15906;52.046;4.724;2023-07-13T00:58:58;12.43;;;3.10;;
27539;SDS011;15906;52.046;4.724;2023-07-13T01:01:24;10.70;;;3.38;;
27539;SDS011;15906;52.046;4.724;2023-07-13T01:03:50;11.32;;;3.65;;
27539;SDS011;15906;52.046;4.724;2023-07-13T01:06:16;14.23;;;3.70;;
27539;SDS011;15906;52.046;4.724;2023-07-13T01:08:42;15.38;;;3.97;;
27539;SDS011;15906;52.046;4.724;2023-07-13T01:11:08;13.20;;;3.08;;
27539;SDS011;15906;52.046;4.724;2023-07-13T01:13:33;13.57;;;2.97;;
27539;SDS011;15906;52.046;4.724;2023-07-13T01:16:01;15.25;;;4.00;;
27539;SDS011;15906;52.046;4.724;2023-07-13T01:18:30;14.23;;;4.20;;
27539;SDS011;15906;52.046;4.724;2023-07-13T01:21:00;15.65;;;5.30;;
27539;SDS011;15906;52.046;4.724;2023-07-13T01:23:28;9.77;;;3.10;;
27539;SDS011;15906;52.046;4.724;2023-07-13T01:25:55;9.10;;;3.20;;
27539;SDS011;15906;52.046;4.724;2023-07-13T01:28:22;9.05;;;2.85;;
27539;SDS011;15906;52.046;4.724;2023-07-13T01:30:51;12.20;;;3.50;;
27539;SDS011;15906;52.046;4.724;2023-07-13T01:33:18;9.35;;;3.50;;
27539;SDS011;15906;52.046;4.724;2023-07-13T01:35:44;12.95;;;3.88;;
27539;SDS011;15906;52.046;4.724;2023-07-13T01:38:11;15.32;;;4.18;;
27539;SDS011;15906;52.046;4.724;2023-07-13T01:40:38;13.68;;;3.83;;
27539;SDS011;15906;52.046;4.724;2023-07-13T01:43:04;11.02;;;3.10;;
27539;SDS011;15906;52.046;4.724;2023-07-13T01:45:30;14.75;;;3.83;;
27539;SDS011;15906;52.046;4.724;2023-07-13T01:47:55;9.88;;;2.88;;
27539;SDS011;15906;52.046;4.724;2023-07-13T01:50:21;10.48;;;3.25;;
27539;SDS011;15906;52.046;4.724;2023-07-13T01:52:46;12.88;;;3.40;;
27539;SDS011;15906;52.046;4.724;2023-07-13T01:55:12;13.20;;;3.33;;
27539;SDS011;15906;52.046;4.724;2023-07-13T01:57:38;10.55;;;3.17;;
27539;SDS011;15906;52.046;4.724;2023-07-13T02:00:05;13.30;;;3.58;;
27539;SDS011;15906;52.046;4.724;2023-07-13T02:02:32;10.40;;;3.42;;
27539;SDS011;15906;52.046;4.724;2023-07-13T02:04:57;13.63;;;2.72;;
27539;SDS011;15906;52.046;4.724;2023-07-13T02:07:23;10.32;;;2.70;;
27539;SDS011;15906;52.046;4.724;2023-07-13T02:09:48;12.65;;;2.65;;
27539;SDS011;15906;52.046;4.724;2023-07-13T02:12:14;10.02;;;2.20;;
27539;SDS011;15906;52.046;4.724;2023-07-13T02:14:39;5.75;;;2.55;;
27539;SDS011;15906;52.046;4.724;2023-07-13T02:17:05;8.20;;;2.00;;
27539;SDS011;15906;52.046;4.724;2023-07-13T02:19:31;6.88;;;2.45;;
27539;SDS011;15906;52.046;4.724;2023-07-13T02:21:57;4.90;;;1.70;;
27539;SDS011;15906;52.046;4.724;2023-07-13T02:24:22;4.40;;;1.52;;
27539;SDS011;15906;52.046;4.724;2023-07-13T02:26:48;6.03;;;2.08;;
27539;SDS011;15906;52.046;4.724;2023-07-13T02:29:13;3.97;;;1.75;;
27539;SDS011;15906;52.046;4.724;2023-07-13T02:31:39;5.57;;;2.05;;
27539;SDS011;15906;52.046;4.724;2023-07-13T02:34:04;5.68;;;1.60;;
27539;SDS011;15906;52.046;4.724;2023-07-13T02:36:30;4.93;;;1.55;;
27539;SDS011;15906;52.046;4.724;2023-07-13T02:38:57;7.15;;;1.40;;
27539;SDS011;15906;52.046;4.724;2023-07-13T02:41:25;7.85;;;1.48;;
27539;SDS011;15906;52.046;4.724;2023-07-13T02:43:51;5.72;;;1.88;;
27539;SDS011;15906;52.046;4.724;2023-07-13T02:46:17;5.13;;;1.75;;
27539;SDS011;15906;52.046;4.724;2023-07-13T02:48:44;11.27;;;2.13;;
27539;SDS011;15906;52.046;4.724;2023-07-13T02:51:10;9.45;;;1.90;;
27539;SDS011;15906;52.046;4.724;2023-07-13T02:53:36;8.32;;;2.17;;
27539;SDS011;15906;52.046;4.724;2023-07-13T02:56:02;7.78;;;1.80;;
27539;SDS011;15906;52.046;4.724;2023-07-13T02:58:29;5.72;;;2.20;;
27539;SDS011;15906;52.046;4.724;2023-07-13T03:00:55;7.10;;;1.85;;
27539;SDS011;15906;52.046;4.724;2023-07-13T03:03:22;9.15;;;1.90;;
27539;SDS011;15906;52.046;4.724;2023-07-13T03:05:48;8.20;;;2.00;;
27539;SDS011;15906;52.046;4.724;2023-07-13T03:08:25;8.77;;;1.83;;
27539;SDS011;15906;52.046;4.724;2023-07-13T03:11:00;7.40;;;2.33;;
27539;SDS011;15906;52.046;4.724;2023-07-13T03:13:27;7.82;;;2.05;;
27539;SDS011;15906;52.046;4.724;2023-07-13T03:15:52;10.38;;;1.90;;
27539;SDS011;15906;52.046;4.724;2023-07-13T03:18:18;8.23;;;1.83;;
27539;SDS011;15906;52.046;4.724;2023-07-13T03:20:43;10.50;;;2.47;;
27539;SDS011;15906;52.046;4.724;2023-07-13T03:23:09;7.80;;;2.78;;
27539;SDS011;15906;52.046;4.724;2023-07-13T03:25:34;6.95;;;2.22;;
27539;SDS011;15906;52.046;4.724;2023-07-13T03:28:00;11.65;;;3.25;;
27539;SDS011;15906;52.046;4.724;2023-07-13T03:30:26;10.48;;;2.80;;
27539;SDS011;15906;52.046;4.724;2023-07-13T03:32:51;16.92;;;3.13;;
27539;SDS011;15906;52.046;4.724;2023-07-13T03:35:17;12.00;;;3.40;;
27539;SDS011;15906;52.046;4.724;2023-07-13T03:37:42;13.30;;;2.85;;
27539;SDS011;15906;52.046;4.724;2023-07-13T03:40:08;18.13;;;3.10;;
27539;SDS011;15906;52.046;4.724;2023-07-13T03:42:35;15.00;;;3.55;;
27539;SDS011;15906;52.046;4.724;2023-07-13T03:45:00;12.25;;;3.17;;
27539;SDS011;15906;52.046;4.724;2023-07-13T03:47:26;9.77;;;2.65;;
27539;SDS011;15906;52.046;4.724;2023-07-13T03:49:51;11.63;;;3.97;;
27539;SDS011;15906;52.046;4.724;2023-07-13T03:52:18;9.90;;;3.05;;
27539;SDS011;15906;52.046;4.724;2023-07-13T03:54:44;10.50;;;3.13;;
27539;SDS011;15906;52.046;4.724;2023-07-13T03:57:10;7.60;;;2.95;;
27539;SDS011;15906;52.046;4.724;2023-07-13T03:59:36;9.93;;;3.10;;
27539;SDS011;15906;52.046;4.724;2023-07-13T04:02:01;12.35;;;3.65;;
27539;SDS011;15906;52.046;4.724;2023-07-13T04:04:29;11.10;;;3.15;;
27539;SDS011;15906;52.046;4.724;2023-07-13T04:06:56;14.40;;;3.53;;
27539;SDS011;15906;52.046;4.724;2023-07-13T04:09:23;13.68;;;3.42;;
27539;SDS011;15906;52.046;4.724;2023-07-13T04:11:49;10.07;;;4.10;;
27539;SDS011;15906;52.046;4.724;2023-07-13T04:14:15;11.38;;;3.38;;
27539;SDS011;15906;52.046;4.724;2023-07-13T04:16:41;9.43;;;3.15;;
27539;SDS011;15906;52.046;4.724;2023-07-13T04:19:07;17.90;;;5.05;;
27539;SDS011;15906;52.046;4.724;2023-07-13T04:21:35;14.10;;;3.50;;
27539;SDS011;15906;52.046;4.724;2023-07-13T04:24:01;15.35;;;3.47;;
27539;SDS011;15906;52.046;4.724;2023-07-13T04:26:27;16.63;;;4.63;;
27539;SDS011;15906;52.046;4.724;2023-07-13T04:28:54;15.93;;;4.28;;
27539;SDS011;15906;52.046;4.724;2023-07-13T04:31:19;19.63;;;4.07;;
27539;SDS011;15906;52.046;4.724;2023-07-13T04:33:45;19.33;;;4.40;;
27539;SDS011;15906;52.046;4.724;2023-07-13T04:36:11;13.10;;;3.50;;
27539;SDS011;15906;52.046;4.724;2023-07-13T04:38:37;14.75;;;4.15;;
27539;SDS011;15906;52.046;4.724;2023-07-13T04:41:04;14.85;;;4.18;;
27539;SDS011;15906;52.046;4.724;2023-07-13T04:43:30;19.23;;;5.38;;
27539;SDS011;15906;52.046;4.724;2023-07-13T04:46:02;15.88;;;4.30;;
27539;SDS011;15906;52.046;4.724;2023-07-13T04:48:29;16.00;;;4.40;;
27539;SDS011;15906;52.046;4.724;2023-07-13T04:50:55;17.95;;;4.53;;
27539;SDS011;15906;52.046;4.724;2023-07-13T04:53:21;18.23;;;4.63;;
27539;SDS011;15906;52.046;4.724;2023-07-13T04:55:47;15.40;;;4.38;;
27539;SDS011;15906;52.046;4.724;2023-07-13T04:58:13;22.80;;;5.78;;
27539;SDS011;15906;52.046;4.724;2023-07-13T05:00:38;20.73;;;4.30;;
27539;SDS011;15906;52.046;4.724;2023-07-13T05:03:04;15.40;;;5.28;;
27539;SDS011;15906;52.046;4.724;2023-07-13T05:05:30;16.35;;;4.38;;
27539;SDS011;15906;52.046;4.724;2023-07-13T05:07:56;17.67;;;4.85;;
27539;SDS011;15906;52.046;4.724;2023-07-13T05:10:22;21.20;;;4.68;;
27539;SDS011;15906;52.046;4.724;2023-07-13T05:12:48;12.30;;;4.65;;
27539;SDS011;15906;52.046;4.724;2023-07-13T05:15:13;20.77;;;5.32;;
27539;SDS011;15906;52.046;4.724;2023-07-13T05:17:40;16.27;;;5.22;;
27539;SDS011;15906;52.046;4.724;2023-07-13T05:20:06;16.50;;;4.82;;
27539;SDS011;15906;52.046;4.724;2023-07-13T05:22:32;15.48;;;4.60;;
27539;SDS011;15906;52.046;4.724;2023-07-13T05:25:00;15.02;;;5.45;;
27539;SDS011;15906;52.046;4.724;2023-07-13T05:27:29;20.60;;;4.40;;
27539;SDS011;15906;52.046;4.724;2023-07-13T05:29:55;18.23;;;5.05;;
27539;SDS011;15906;52.046;4.724;2023-07-13T05:32:21;16.05;;;4.80;;
27539;SDS011;15906;52.046;4.724;2023-07-13T05:34:46;16.55;;;4.82;;
27539;SDS011;15906;52.046;4.724;2023-07-13T05:37:12;18.08;;;4.97;;
27539;SDS011;15906;52.046;4.724;2023-07-13T05:39:37;12.10;;;4.90;;
27539;SDS011;15906;52.046;4.724;2023-07-13T05:42:03;18.25;;;4.18;;
27539;SDS011;15906;52.046;4.724;2023-07-13T05:44:29;15.25;;;3.97;;
27539;SDS011;15906;52.046;4.724;2023-07-13T05:46:55;17.75;;;4.70;;
27539;SDS011;15906;52.046;4.724;2023-07-13T05:49:21;21.25;;;4.72;;
27539;SDS011;15906;52.046;4.724;2023-07-13T05:51:48;13.90;;;4.28;;
27539;SDS011;15906;52.046;4.724;2023-07-13T05:54:13;19.17;;;4.90;;
27539;SDS011;15906;52.046;4.724;2023-07-13T05:56:39;14.63;;;4.60;;
27539;SDS011;15906;52.046;4.724;2023-07-13T05:59:04;11.68;;;4.55;;
27539;SDS011;15906;52.046;4.724;2023-07-13T06:01:30;16.20;;;4.43;;
27539;SDS011;15906;52.046;4.724;2023-07-13T06:03:56;17.83;;;5.50;;
27539;SDS011;15906;52.046;4.724;2023-07-13T06:06:22;16.88;;;4.43;;
27539;SDS011;15906;52.046;4.724;2023-07-13T06:08:47;15.30;;;5.22;;
27539;SDS011;15906;52.046;4.724;2023-07-13T06:11:15;19.10;;;4.93;;
27539;SDS011;15906;52.046;4.724;2023-07-13T06:13:42;10.38;;;4.07;;
27539;SDS011;15906;52.046;4.724;2023-07-13T06:16:08;13.18;;;5.07;;
27539;SDS011;15906;52.046;4.724;2023-07-13T06:18:34;17.10;;;4.75;;
27539;SDS011;15906;52.046;4.724;2023-07-13T06:21:05;13.85;;;4.63;;
27539;SDS011;15906;52.046;4.724;2023-07-13T06:23:33;21.80;;;6.15;;
27539;SDS011;15906;52.046;4.724;2023-07-13T06:25:59;13.75;;;5.43;;
27539;SDS011;15906;52.046;4.724;2023-07-13T06:28:25;11.75;;;4.40;;
27539;SDS011;15906;52.046;4.724;2023-07-13T06:30:50;10.63;;;3.60;;
27539;SDS011;15906;52.046;4.724;2023-07-13T06:33:16;9.80;;;3.40;;
27539;SDS011;15906;52.046;4.724;2023-07-13T06:35:42;11.25;;;3.65;;
27539;SDS011;15906;52.046;4.724;2023-07-13T06:38:07;10.40;;;2.90;;
27539;SDS011;15906;52.046;4.724;2023-07-13T06:40:33;5.63;;;2.67;;
27539;SDS011;15906;52.046;4.724;2023-07-13T06:43:01;8.20;;;2.45;;
27539;SDS011;15906;52.046;4.724;2023-07-13T06:45:27;5.53;;;2.20;;
27539;SDS011;15906;52.046;4.724;2023-07-13T06:47:53;5.68;;;3.00;;
27539;SDS011;15906;52.046;4.724;2023-07-13T06:50:18;12.20;;;2.78;;
27539;SDS011;15906;52.046;4.724;2023-07-13T06:52:44;5.88;;;2.75;;
27539;SDS011;15906;52.046;4.724;2023-07-13T06:55:09;6.78;;;2.75;;
27539;SDS011;15906;52.046;4.724;2023-07-13T06:57:35;5.40;;;3.15;;
27539;SDS011;15906;52.046;4.724;2023-07-13T07:00:00;6.63;;;2.92;;
27539;SDS011;15906;52.046;4.724;2023-07-13T07:02:26;7.35;;;3.30;;
27539;SDS011;15906;52.046;4.724;2023-07-13T07:04:51;7.28;;;3.33;;
27539;SDS011;15906;52.046;4.724;2023-07-13T07:07:19;9.23;;;3.88;;
27539;SDS011;15906;52.046;4.724;2023-07-13T07:09:44;8.48;;;3.90;;
27539;SDS011;15906;52.046;4.724;2023-07-13T07:12:10;5.53;;;3.25;;
27539;SDS011;15906;52.046;4.724;2023-07-13T07:14:35;6.38;;;3.38;;
27539;SDS011;15906;52.046;4.724;2023-07-13T07:17:01;7.00;;;3.03;;
27539;SDS011;15906;52.046;4.724;2023-07-13T07:19:27;6.40;;;2.97;;
27539;SDS011;15906;52.046;4.724;2023-07-13T07:21:54;5.70;;;2.70;;
27539;SDS011;15906;52.046;4.724;2023-07-13T07:24:20;7.10;;;2.78;;
27539;SDS011;15906;52.046;4.724;2023-07-13T07:26:45;6.75;;;3.22;;
27539;SDS011;15906;52.046;4.724;2023-07-13T07:29:11;4.20;;;2.60;;
27539;SDS011;15906;52.046;4.724;2023-07-13T07:31:37;8.57;;;3.38;;
27539;SDS011;15906;52.046;4.724;2023-07-13T07:34:02;4.68;;;2.58;;
27539;SDS011;15906;52.046;4.724;2023-07-13T07:36:28;6.05;;;3.17;;
27539;SDS011;15906;52.046;4.724;2023-07-13T07:38:53;9.30;;;2.85;;
27539;SDS011;15906;52.046;4.724;2023-07-13T07:41:19;6.78;;;3.53;;
27539;SDS011;15906;52.046;4.724;2023-07-13T07:43:44;5.68;;;3.40;;
27539;SDS011;15906;52.046;4.724;2023-07-13T07:46:10;6.78;;;3.45;;
27539;SDS011;15906;52.046;4.724;2023-07-13T07:48:35;9.88;;;3.85;;
27539;SDS011;15906;52.046;4.724;2023-07-13T07:51:01;10.98;;;3.97;;
27539;SDS011;15906;52.046;4.724;2023-07-13T07:53:26;7.57;;;3.80;;
27539;SDS011;15906;52.046;4.724;2023-07-13T07:55:52;11.75;;;4.63;;
27539;SDS011;15906;52.046;4.724;2023-07-13T07:58:17;10.82;;;4.57;;
27539;SDS011;15906;52.046;4.724;2023-07-13T08:00:43;10.45;;;5.63;;
27539;SDS011;15906;52.046;4.724;2023-07-13T08:03:09;9.20;;;4.05;;
27539;SDS011;15906;52.046;4.724;2023-07-13T08:05:35;9.00;;;4.00;;
27539;SDS011;15906;52.046;4.724;2023-07-13T08:08:01;8.18;;;3.55;;
27539;SDS011;15906;52.046;4.724;2023-07-13T08:10:27;8.57;;;3.25;;
27539;SDS011;15906;52.046;4.724;2023-07-13T08:12:53;6.82;;;3.40;;
27539;SDS011;15906;52.046;4.724;2023-07-13T08:15:19;7.15;;;2.53;;
27539;SDS011;15906;52.046;4.724;2023-07-13T08:17:46;6.05;;;2.65;;
27539;SDS011;15906;52.046;4.724;2023-07-13T08:20:14;4.63;;;3.13;;
27539;SDS011;15906;52.046;4.724;2023-07-13T08:22:40;8.82;;;3.80;;
27539;SDS011;15906;52.046;4.724;2023-07-13T08:25:06;4.55;;;3.13;;
27539;SDS011;15906;52.046;4.724;2023-07-13T08:27:32;5.78;;;3.58;;
27539;SDS011;15906;52.046;4.724;2023-07-13T08:29:57;8.77;;;3.38;;
27539;SDS011;15906;52.046;4.724;2023-07-13T08:32:23;7.20;;;3.45;;
27539;SDS011;15906;52.046;4.724;2023-07-13T08:34:49;7.90;;;3.72;;
27539;SDS011;15906;52.046;4.724;2023-07-13T08:37:16;7.72;;;3.17;;
27539;SDS011;15906;52.046;4.724;2023-07-13T08:39:41;11.45;;;3.67;;
27539;SDS011;15906;52.046;4.724;2023-07-13T08:42:12;8.65;;;3.20;;
27539;SDS011;15906;52.046;4.724;2023-07-13T08:47:26;6.82;;;2.67;;
27539;SDS011;15906;52.046;4.724;2023-07-13T08:49:56;7.18;;;2.65;;
27539;SDS011;15906;52.046;4.724;2023-07-13T08:52:31;5.90;;;2.90;;
27539;SDS011;15906;52.046;4.724;2023-07-13T08:55:20;6.40;;;2.95;;
27539;SDS011;15906;52.046;4.724;2023-07-13T08:57:53;5.70;;;3.03;;
27539;SDS011;15906;52.046;4.724;2023-07-13T09:00:25;5.25;;;3.15;;
27539;SDS011;15906;52.046;4.724;2023-07-13T09:03:12;7.00;;;3.38;;
27539;SDS011;15906;52.046;4.724;2023-07-13T09:05:45;5.70;;;3.47;;
27539;SDS011;15906;52.046;4.724;2023-07-13T09:10:49;9.00;;;4.25;;
27539;SDS011;15906;52.046;4.724;2023-07-13T09:15:59;10.05;;;4.32;;
27539;SDS011;15906;52.046;4.724;2023-07-13T09:18:30;12.40;;;4.85;;
27539;SDS011;15906;52.046;4.724;2023-07-13T09:21:15;5.38;;;3.78;;
27539;SDS011;15906;52.046;4.724;2023-07-13T09:23:43;5.68;;;3.60;;
27539;SDS011;15906;52.046;4.724;2023-07-13T09:26:18;6.57;;;4.25;;
27539;SDS011;15906;52.046;4.724;2023-07-13T09:28:47;9.75;;;4.40;;
27539;SDS011;15906;52.046;4.724;2023-07-13T09:31:30;8.55;;;4.00;;
27539;SDS011;15906;52.046;4.724;2023-07-13T09:34:09;8.88;;;4.47;;
27539;SDS011;15906;52.046;4.724;2023-07-13T09:36:36;8.27;;;5.10;;
27539;SDS011;15906;52.046;4.724;2023-07-13T09:39:04;7.07;;;4.15;;
27539;SDS011;15906;52.046;4.724;2023-07-13T09:44:15;7.00;;;3.10;;
27539;SDS011;15906;52.046;4.724;2023-07-13T09:46:46;5.82;;;3.67;;
27539;SDS011;15906;52.046;4.724;2023-07-13T09:49:17;7.03;;;3.08;;
27539;SDS011;15906;52.046;4.724;2023-07-13T09:51:43;11.27;;;3.70;;
27539;SDS011;15906;52.046;4.724;2023-07-13T09:54:19;6.57;;;3.60;;
27539;SDS011;15906;52.046;4.724;2023-07-13T09:56:46;4.93;;;2.55;;
27539;SDS011;15906;52.046;4.724;2023-07-13T09:59:19;5.15;;;2.60;;
27539;SDS011;15906;52.046;4.724;2023-07-13T10:01:46;5.22;;;2.50;;
27539;SDS011;15906;52.046;4.724;2023-07-13T10:04:14;5.55;;;2.60;;
27539;SDS011;15906;52.046;4.724;2023-07-13T10:06:44;6.40;;;2.85;;
27539;SDS011;15906;52.046;4.724;2023-07-13T10:09:10;6.15;;;2.70;;
27539;SDS011;15906;52.046;4.724;2023-07-13T10:11:40;4.53;;;3.22;;
27539;SDS011;15906;52.046;4.724;2023-07-13T10:16:43;9.35;;;3.40;;
27539;SDS011;15906;52.046;4.724;2023-07-13T10:19:11;8.98;;;3.50;;
27539;SDS011;15906;52.046;4.724;2023-07-13T10:21:53;5.68;;;3.30;;
27539;SDS011;15906;52.046;4.724;2023-07-13T10:24:32;5.03;;;3.70;;
27539;SDS011;15906;52.046;4.724;2023-07-13T10:32:34;7.60;;;2.90;;
27539;SDS011;15906;52.046;4.724;2023-07-13T10:35:00;9.05;;;2.67;;
27539;SDS011;15906;52.046;4.724;2023-07-13T10:37:29;7.93;;;3.88;;
27539;SDS011;15906;52.046;4.724;2023-07-13T10:40:01;5.45;;;3.20;;
27539;SDS011;15906;52.046;4.724;2023-07-13T10:42:37;13.80;;;3.92;;
27539;SDS011;15906;52.046;4.724;2023-07-13T10:45:17;4.45;;;3.22;;
27539;SDS011;15906;52.046;4.724;2023-07-13T10:47:45;7.22;;;3.10;;
27539;SDS011;15906;52.046;4.724;2023-07-13T10:50:22;6.75;;;3.33;;
27539;SDS011;15906;52.046;4.724;2023-07-13T10:52:53;4.45;;;3.25;;
27539;SDS011;15906;52.046;4.724;2023-07-13T10:58:14;5.15;;;3.45;;
27539;SDS011;15906;52.046;4.724;2023-07-13T11:00:56;6.60;;;3.40;;
27539;SDS011;15906;52.046;4.724;2023-07-13T11:03:32;8.40;;;3.75;;
27539;SDS011;15906;52.046;4.724;2023-07-13T11:08:38;5.55;;;3.40;;
27539;SDS011;15906;52.046;4.724;2023-07-13T11:11:32;6.57;;;2.55;;
27539;SDS011;15906;52.046;4.724;2023-07-13T11:14:02;7.65;;;3.13;;
27539;SDS011;15906;52.046;4.724;2023-07-13T11:16:34;3.67;;;2.58;;
27539;SDS011;15906;52.046;4.724;2023-07-13T11:19:24;4.32;;;2.00;;
27539;SDS011;15906;52.046;4.724;2023-07-13T11:27:27;7.18;;;2.70;;
27539;SDS011;15906;52.046;4.724;2023-07-13T11:35:37;7.40;;;2.70;;
27539;SDS011;15906;52.046;4.724;2023-07-13T11:38:21;4.95;;;2.70;;
27539;SDS011;15906;52.046;4.724;2023-07-13T11:40:53;3.67;;;2.60;;
27539;SDS011;15906;52.046;4.724;2023-07-13T11:43:20;8.60;;;2.95;;
27539;SDS011;15906;52.046;4.724;2023-07-13T11:45:48;3.58;;;2.20;;
27539;SDS011;15906;52.046;4.724;2023-07-13T11:48:21;3.55;;;2.50;;
27539;SDS011;15906;52.046;4.724;2023-07-13T11:51:00;5.88;;;2.72;;
27539;SDS011;15906;52.046;4.724;2023-07-13T11:53:31;6.63;;;2.80;;
27539;SDS011;15906;52.046;4.724;2023-07-13T11:56:05;6.18;;;2.65;;
27539;SDS011;15906;52.046;4.724;2023-07-13T11:58:32;4.97;;;3.17;;
27539;SDS011;15906;52.046;4.724;2023-07-13T12:00:59;4.22;;;2.30;;
27539;SDS011;15906;52.046;4.724;2023-07-13T12:03:29;3.47;;;2.70;;
27539;SDS011;15906;52.046;4.724;2023-07-13T12:05:57;5.88;;;2.42;;
27539;SDS011;15906;52.046;4.724;2023-07-13T12:08:25;6.75;;;2.40;;
27539;SDS011;15906;52.046;4.724;2023-07-13T12:10:59;5.38;;;2.42;;
27539;SDS011;15906;52.046;4.724;2023-07-13T12:13:34;5.38;;;2.67;;
27539;SDS011;15906;52.046;4.724;2023-07-13T12:16:01;4.65;;;2.90;;
27539;SDS011;15906;52.046;4.724;2023-07-13T12:18:30;4.53;;;3.33;;
27539;SDS011;15906;52.046;4.724;2023-07-13T12:20:58;6.20;;;2.97;;
27539;SDS011;15906;52.046;4.724;2023-07-13T12:25:53;6.28;;;2.95;;
27539;SDS011;15906;52.046;4.724;2023-07-13T12:28:20;8.40;;;3.13;;
27539;SDS011;15906;52.046;4.724;2023-07-13T12:30:47;3.65;;;2.70;;
27539;SDS011;15906;52.046;4.724;2023-07-13T12:33:14;6.82;;;4.15;;
27539;SDS011;15906;52.046;4.724;2023-07-13T12:35:44;4.28;;;2.55;;
27539;SDS011;15906;52.046;4.724;2023-07-13T12:38:12;6.40;;;2.97;;
27539;SDS011;15906;52.046;4.724;2023-07-13T12:40:39;5.78;;;2.80;;
27539;SDS011;15906;52.046;4.724;2023-07-13T12:43:09;3.67;;;2.90;;
27539;SDS011;15906;52.046;4.724;2023-07-13T12:45:54;3.75;;;2.78;;
27539;SDS011;15906;52.046;4.724;2023-07-13T12:48:21;7.15;;;2.60;;
27539;SDS011;15906;52.046;4.724;2023-07-13T12:50:47;4.07;;;2.70;;
27539;SDS011;15906;52.046;4.724;2023-07-13T12:53:16;4.03;;;2.58;;
27539;SDS011;15906;52.046;4.724;2023-07-13T12:55:50;5.57;;;2.47;;
27539;SDS011;15906;52.046;4.724;2023-07-13T12:58:25;6.28;;;2.75;;
27539;SDS011;15906;52.046;4.724;2023-07-13T13:00:53;6.25;;;2.80;;
27539;SDS011;15906;52.046;4.724;2023-07-13T13:03:33;6.53;;;2.42;;
27539;SDS011;15906;52.046;4.724;2023-07-13T13:06:05;7.95;;;2.67;;
27539;SDS011;15906;52.046;4.724;2023-07-13T13:08:32;3.47;;;2.15;;
27539;SDS011;15906;52.046;4.724;2023-07-13T13:10:59;5.75;;;2.20;;
27539;SDS011;15906;52.046;4.724;2023-07-13T13:13:26;4.47;;;2.55;;
27539;SDS011;15906;52.046;4.724;2023-07-13T13:15:52;5.25;;;2.55;;
27539;SDS011;15906;52.046;4.724;2023-07-13T13:18:19;5.45;;;2.40;;
27539;SDS011;15906;52.046;4.724;2023-07-13T13:20:46;8.18;;;2.38;;
27539;SDS011;15906;52.046;4.724;2023-07-13T13:23:17;5.18;;;2.15;;
27539;SDS011;15906;52.046;4.724;2023-07-13T13:25:48;5.68;;;2.10;;
27539;SDS011;15906;52.046;4.724;2023-07-13T13:28:16;4.80;;;2.17;;
27539;SDS011;15906;52.046;4.724;2023-07-13T13:30:44;5.85;;;2.30;;
27539;SDS011;15906;52.046;4.724;2023-07-13T13:33:12;3.92;;;1.98;;
27539;SDS011;15906;52.046;4.724;2023-07-13T13:35:40;3.55;;;2.20;;
27539;SDS011;15906;52.046;4.724;2023-07-13T13:38:13;6.63;;;2.13;;
27539;SDS011;15906;52.046;4.724;2023-07-13T13:40:43;5.25;;;2.35;;
27539;SDS011;15906;52.046;4.724;2023-07-13T13:43:21;5.53;;;2.35;;
27539;SDS011;15906;52.046;4.724;2023-07-13T13:45:52;6.28;;;2.40;;
27539;SDS011;15906;52.046;4.724;2023-07-13T13:48:31;6.78;;;2.25;;
27539;SDS011;15906;52.046;4.724;2023-07-13T13:50:58;4.18;;;2.30;;
27539;SDS011;15906;52.046;4.724;2023-07-13T13:53:25;5.22;;;2.17;;
27539;SDS011;15906;52.046;4.724;2023-07-13T13:55:51;5.53;;;1.98;;
27539;SDS011;15906;52.046;4.724;2023-07-13T13:58:18;6.70;;;2.08;;
27539;SDS011;15906;52.046;4.724;2023-07-13T14:00:44;4.97;;;2.00;;
27539;SDS011;15906;52.046;4.724;2023-07-13T14:03:19;4.10;;;1.98;;
27539;SDS011;15906;52.046;4.724;2023-07-13T14:05:46;3.58;;;1.77;;
27539;SDS011;15906;52.046;4.724;2023-07-13T14:08:17;4.22;;;2.00;;
27539;SDS011;15906;52.046;4.724;2023-07-13T14:10:48;7.03;;;1.85;;
27539;SDS011;15906;52.046;4.724;2023-07-13T14:13:35;8.15;;;2.13;;
27539;SDS011;15906;52.046;4.724;2023-07-13T14:16:09;3.72;;;1.73;;
27539;SDS011;15906;52.046;4.724;2023-07-13T14:18:41;3.42;;;1.73;;
27539;SDS011;15906;52.046;4.724;2023-07-13T14:21:10;5.07;;;2.13;;
27539;SDS011;15906;52.046;4.724;2023-07-13T14:23:40;2.45;;;1.45;;
27539;SDS011;15906;52.046;4.724;2023-07-13T14:26:13;3.95;;;2.10;;
27539;SDS011;15906;52.046;4.724;2023-07-13T14:28:42;3.50;;;1.40;;
27539;SDS011;15906;52.046;4.724;2023-07-13T14:31:11;4.68;;;1.60;;
27539;SDS011;15906;52.046;4.724;2023-07-13T14:33:37;4.38;;;1.77;;
27539;SDS011;15906;52.046;4.724;2023-07-13T14:36:05;4.32;;;1.80;;
27539;SDS011;15906;52.046;4.724;2023-07-13T14:38:48;4.82;;;1.83;;
27539;SDS011;15906;52.046;4.724;2023-07-13T14:41:26;4.32;;;1.83;;
27539;SDS011;15906;52.046;4.724;2023-07-13T14:43:52;3.42;;;1.70;;
27539;SDS011;15906;52.046;4.724;2023-07-13T14:46:28;3.90;;;1.65;;
27539;SDS011;15906;52.046;4.724;2023-07-13T14:48:59;4.28;;;1.27;;
27539;SDS011;15906;52.046;4.724;2023-07-13T14:51:30;4.40;;;1.85;;
27539;SDS011;15906;52.046;4.724;2023-07-13T14:53:58;3.47;;;1.30;;
27539;SDS011;15906;52.046;4.724;2023-07-13T14:56:28;5.13;;;1.88;;
27539;SDS011;15906;52.046;4.724;2023-07-13T14:58:53;4.80;;;2.00;;
27539;SDS011;15906;52.046;4.724;2023-07-13T15:01:19;4.35;;;1.40;;
27539;SDS011;15906;52.046;4.724;2023-07-13T15:03:47;2.45;;;1.58;;
27539;SDS011;15906;52.046;4.724;2023-07-13T15:06:15;3.65;;;1.50;;
27539;SDS011;15906;52.046;4.724;2023-07-13T15:08:40;3.92;;;1.70;;
27539;SDS011;15906;52.046;4.724;2023-07-13T15:11:07;5.22;;;1.67;;
27539;SDS011;15906;52.046;4.724;2023-07-13T15:13:36;1.42;;;1.23;;
27539;SDS011;15906;52.046;4.724;2023-07-13T15:16:03;2.83;;;1.48;;
27539;SDS011;15906;52.046;4.724;2023-07-13T15:18:29;3.42;;;1.70;;
27539;SDS011;15906;52.046;4.724;2023-07-13T15:20:55;3.75;;;1.65;;
27539;SDS011;15906;52.046;4.724;2023-07-13T15:23:22;3.97;;;1.88;;
27539;SDS011;15906;52.046;4.724;2023-07-13T15:25:48;3.55;;;1.42;;
27539;SDS011;15906;52.046;4.724;2023-07-13T15:28:14;5.32;;;1.73;;